Time;durP1;ratioP1;P1;durP2;ratioP2;P2;SDS_P1;SDS_P2;PMS_P1;PMS_P2;Temp;Humidity;BMP_temperature;BMP_pressure;BME280_temperature;BME280_humidity;BME280_pressure;Samples;Min_cycle;Max_cycle;Signal;HPM_P1;HPM_P2
2023/12/30 00:01:46;;;;;;;0.40;0.32;;;7.40;99.90;;;;;;5010919;28;20415;-63
2023/12/30 00:04:12;;;;;;;0.32;0.30;;;7.40;99.90;;;;;;5017054;28;20037;-63
2023/12/30 00:06:38;;;;;;;1.10;0.32;;;7.30;99.90;;;;;;5017042;28;20503;-63
2023/12/30 00:09:03;;;;;;;0.50;0.20;;;7.30;99.90;;;;;;5017322;28;20034;-63
2023/12/30 00:11:29;;;;;;;1.95;0.32;;;7.20;99.90;;;;;;5016667;28;20037;-63
2023/12/30 00:13:54;;;;;;;0.32;0.32;;;7.30;99.90;;;;;;5033567;28;20022;-63
2023/12/30 00:16:20;;;;;;;1.02;0.45;;;7.20;99.90;;;;;;5016285;28;20032;-63
2023/12/30 00:18:45;;;;;;;0.85;0.82;;;7.20;99.90;;;;;;5012490;28;20049;-63
2023/12/30 00:21:12;;;;;;;0.75;0.50;;;7.20;99.90;;;;;;5017203;28;20065;-64
2023/12/30 00:23:42;;;;;;;0.82;0.30;;;7.30;99.90;;;;;;5017296;28;20041;-63
2023/12/30 00:26:07;;;;;;;0.20;0.20;;;7.30;99.90;;;;;;5016978;28;20032;-63
2023/12/30 00:28:33;;;;;;;0.30;0.22;;;7.30;99.90;;;;;;5018885;28;20033;-64
2023/12/30 00:30:59;;;;;;;0.30;0.20;;;7.30;99.90;;;;;;5016821;28;20733;-63
2023/12/30 00:33:24;;;;;;;0.40;0.28;;;7.30;99.90;;;;;;5014622;28;20033;-63
2023/12/30 00:35:49;;;;;;;0.28;0.20;;;7.30;99.90;;;;;;5009531;28;20064;-63
2023/12/30 00:38:15;;;;;;;1.40;0.20;;;7.30;99.90;;;;;;5014373;28;20073;-63
2023/12/30 00:40:40;;;;;;;0.40;0.30;;;7.30;99.90;;;;;;5016825;28;20048;-63
2023/12/30 00:43:06;;;;;;;0.63;0.30;;;7.30;99.90;;;;;;5017218;28;20033;-63
2023/12/30 00:45:32;;;;;;;1.05;0.32;;;7.30;99.90;;;;;;5015638;28;20025;-64
2023/12/30 00:47:57;;;;;;;0.30;0.30;;;7.30;99.90;;;;;;5016554;28;20045;-63
2023/12/30 00:50:23;;;;;;;0.98;0.22;;;7.30;99.90;;;;;;5012935;28;20478;-63
2023/12/30 00:52:48;;;;;;;0.30;0.30;;;7.40;99.90;;;;;;5016338;28;20036;-63
2023/12/30 00:55:14;;;;;;;1.27;0.40;;;7.30;99.90;;;;;;5018466;28;20128;-64
2023/12/30 00:57:39;;;;;;;0.90;0.32;;;7.30;99.90;;;;;;5012822;28;20107;-64
2023/12/30 01:00:06;;;;;;;0.60;0.60;;;7.30;99.90;;;;;;5015221;28;20567;-63
2023/12/30 01:02:31;;;;;;;0.30;0.30;;;7.30;99.90;;;;;;5011178;28;20072;-64
2023/12/30 01:04:57;;;;;;;0.30;0.20;;;7.30;99.90;;;;;;5014858;28;20539;-63
2023/12/30 01:07:22;;;;;;;0.30;0.30;;;7.30;99.90;;;;;;5011131;28;20057;-63
2023/12/30 01:09:48;;;;;;;0.43;0.40;;;7.30;99.90;;;;;;5012956;28;20026;-64
2023/12/30 01:12:13;;;;;;;0.98;0.40;;;7.30;99.90;;;;;;5009461;28;20950;-64
2023/12/30 01:14:39;;;;;;;0.73;0.40;;;7.40;99.90;;;;;;5012176;28;20017;-62
2023/12/30 01:17:04;;;;;;;0.60;0.40;;;7.30;99.90;;;;;;5012376;28;20085;-62
2023/12/30 01:19:30;;;;;;;0.75;0.50;;;7.40;99.90;;;;;;5012311;28;20033;-64
2023/12/30 01:21:55;;;;;;;0.85;0.35;;;7.40;99.90;;;;;;5016612;28;20550;-64
2023/12/30 01:24:21;;;;;;;2.38;0.50;;;7.30;99.90;;;;;;5016567;28;20084;-64
2023/12/30 01:26:46;;;;;;;1.83;0.50;;;7.20;99.90;;;;;;5014242;28;20033;-64
2023/12/30 01:29:12;;;;;;;1.05;0.50;;;7.20;99.90;;;;;;5013144;28;20099;-64
2023/12/30 01:31:37;;;;;;;1.60;0.60;;;7.20;99.90;;;;;;5019717;28;20072;-64
2023/12/30 01:34:03;;;;;;;1.70;0.70;;;7.10;99.90;;;;;;5019871;28;20056;-64
2023/12/30 01:36:28;;;;;;;1.52;0.60;;;7.20;99.90;;;;;;5019958;28;20017;-63
2023/12/30 01:38:54;;;;;;;1.85;0.63;;;7.20;99.90;;;;;;5021923;28;20107;-64
2023/12/30 01:41:19;;;;;;;1.70;0.60;;;7.20;99.90;;;;;;5015552;28;20045;-64
2023/12/30 01:43:45;;;;;;;2.38;0.95;;;7.20;99.90;;;;;;5020166;28;20406;-64
2023/12/30 01:46:12;;;;;;;1.65;0.68;;;7.30;99.90;;;;;;5019880;28;20239;-64
2023/12/30 01:48:38;;;;;;;2.00;0.70;;;7.30;99.90;;;;;;5015793;28;20570;-64
2023/12/30 01:51:07;;;;;;;3.03;1.00;;;7.30;99.90;;;;;;5011663;28;20045;-64
2023/12/30 01:53:36;;;;;;;1.23;0.80;;;7.40;99.90;;;;;;5017956;28;20653;-64
2023/12/30 01:56:01;;;;;;;1.30;0.75;;;7.40;99.90;;;;;;5016845;28;20045;-64
2023/12/30 01:58:27;;;;;;;0.60;0.50;;;7.40;99.90;;;;;;5015136;28;20084;-64
2023/12/30 02:00:55;;;;;;;3.33;0.90;;;7.40;99.90;;;;;;5020528;28;20108;-64
2023/12/30 02:03:21;;;;;;;2.08;0.60;;;7.40;99.90;;;;;;5018772;28;20057;-64
2023/12/30 02:05:47;;;;;;;1.38;0.80;;;7.40;99.90;;;;;;5021798;28;20491;-64
2023/12/30 02:08:17;;;;;;;1.20;0.88;;;7.30;99.90;;;;;;5021138;28;20024;-64
2023/12/30 02:10:42;;;;;;;1.48;0.70;;;7.30;99.90;;;;;;5021960;28;20092;-64
2023/12/30 02:13:10;;;;;;;2.65;0.80;;;7.30;99.90;;;;;;5021663;28;20060;-64
2023/12/30 02:15:36;;;;;;;1.38;0.55;;;7.30;99.90;;;;;;5021978;28;20754;-64
2023/12/30 02:18:02;;;;;;;2.13;0.60;;;7.30;99.90;;;;;;5023384;28;20109;-64
2023/12/30 02:20:28;;;;;;;0.73;0.60;;;7.20;99.90;;;;;;5021690;28;20025;-64
2023/12/30 02:22:54;;;;;;;0.60;0.47;;;7.20;99.90;;;;;;5020274;28;20476;-64
2023/12/30 02:25:20;;;;;;;1.42;0.47;;;7.20;99.90;;;;;;5021476;28;20083;-64
2023/12/30 02:27:45;;;;;;;1.42;0.60;;;7.20;99.90;;;;;;5021416;28;20539;-64
2023/12/30 02:30:12;;;;;;;3.25;1.02;;;7.30;99.90;;;;;;5021440;28;20028;-64
2023/12/30 02:32:38;;;;;;;1.25;0.70;;;7.20;99.90;;;;;;5019377;28;20098;-64
2023/12/30 02:35:04;;;;;;;2.50;0.70;;;7.30;99.90;;;;;;5021403;28;20824;-64
2023/12/30 02:37:29;;;;;;;2.35;0.65;;;7.30;99.90;;;;;;5021123;28;20131;-64
2023/12/30 02:39:55;;;;;;;2.10;0.70;;;7.20;99.90;;;;;;5019632;28;20026;-64
2023/12/30 02:42:20;;;;;;;0.60;0.50;;;7.20;99.90;;;;;;5021131;28;20053;-64
2023/12/30 02:44:46;;;;;;;2.20;0.70;;;7.30;99.90;;;;;;5021084;28;20022;-63
2023/12/30 02:47:11;;;;;;;1.25;0.57;;;7.30;99.90;;;;;;5022911;28;20495;-65
2023/12/30 02:49:40;;;;;;;1.60;0.82;;;7.30;99.90;;;;;;5020942;28;20036;-64
2023/12/30 02:52:06;;;;;;;2.33;0.90;;;7.30;99.90;;;;;;5020988;28;20029;-64
2023/12/30 02:54:31;;;;;;;2.15;0.70;;;7.30;99.90;;;;;;5020907;28;20029;-64
2023/12/30 02:56:57;;;;;;;4.82;1.00;;;7.30;99.90;;;;;;5021069;28;20025;-64
2023/12/30 02:59:22;;;;;;;1.52;0.65;;;7.30;99.90;;;;;;5020820;28;20046;-64
2023/12/30 03:01:48;;;;;;;1.42;0.60;;;7.30;99.90;;;;;;5017592;28;20295;-62
2023/12/30 03:04:13;;;;;;;1.00;0.80;;;7.30;99.90;;;;;;5021176;28;20434;-64
2023/12/30 03:06:39;;;;;;;2.85;0.77;;;7.30;99.90;;;;;;5019332;28;20120;-64
2023/12/30 03:09:04;;;;;;;0.90;0.70;;;7.30;99.90;;;;;;5020719;28;20494;-64
2023/12/30 03:11:30;;;;;;;2.10;0.65;;;7.30;99.90;;;;;;5020564;28;20033;-64
2023/12/30 03:13:55;;;;;;;1.80;0.50;;;7.30;99.90;;;;;;5020554;28;20072;-64
2023/12/30 03:16:21;;;;;;;2.58;0.63;;;7.30;99.90;;;;;;5020655;28;20092;-64
2023/12/30 03:18:46;;;;;;;1.77;0.60;;;7.20;99.90;;;;;;5022344;28;20040;-64
2023/12/30 03:21:14;;;;;;;0.98;0.57;;;7.20;99.90;;;;;;5020368;28;20445;-64
2023/12/30 03:23:40;;;;;;;2.63;0.93;;;7.20;99.90;;;;;;5020291;28;20087;-64
2023/12/30 03:26:07;;;;;;;3.28;0.60;;;7.20;99.90;;;;;;5020418;28;20501;-64
2023/12/30 03:28:33;;;;;;;0.80;0.40;;;7.20;99.90;;;;;;5020253;28;20037;-63
2023/12/30 03:30:59;;;;;;;1.13;0.60;;;7.30;99.90;;;;;;5020507;28;20080;-66
2023/12/30 03:33:25;;;;;;;1.65;0.70;;;7.30;99.90;;;;;;5020499;28;20033;-63
2023/12/30 03:35:51;;;;;;;0.68;0.50;;;7.30;99.90;;;;;;5021885;28;20021;-64
2023/12/30 03:38:16;;;;;;;3.78;0.60;;;7.30;99.90;;;;;;5020368;28;20108;-63
2023/12/30 03:40:42;;;;;;;0.93;0.57;;;7.30;99.90;;;;;;5017594;28;20435;-63
2023/12/30 03:43:07;;;;;;;0.40;0.40;;;7.30;99.90;;;;;;5012588;28;20365;-63
2023/12/30 03:45:33;;;;;;;0.52;0.40;;;7.30;99.90;;;;;;5013165;28;20088;-64
2023/12/30 03:47:59;;;;;;;1.35;0.55;;;7.30;99.90;;;;;;5017614;28;20021;-64
2023/12/30 03:50:25;;;;;;;1.65;0.60;;;7.30;99.90;;;;;;5013879;28;20093;-64
2023/12/30 03:52:51;;;;;;;1.55;0.40;;;7.30;99.90;;;;;;5011011;28;20110;-63
2023/12/30 03:55:17;;;;;;;1.33;0.50;;;7.30;99.90;;;;;;5016135;28;20105;-63
2023/12/30 03:57:42;;;;;;;1.10;0.60;;;7.30;99.90;;;;;;5014142;28;20057;-63
2023/12/30 04:00:08;;;;;;;1.38;0.63;;;7.20;99.90;;;;;;5010014;28;20061;-63
2023/12/30 04:02:34;;;;;;;0.93;0.40;;;7.20;99.90;;;;;;5016147;28;20029;-64
2023/12/30 04:04:59;;;;;;;0.25;0.25;;;7.20;99.90;;;;;;5021511;28;20036;-63
2023/12/30 04:07:25;;;;;;;0.80;0.50;;;7.20;99.90;;;;;;5015943;28;20476;-64
2023/12/30 04:09:50;;;;;;;2.20;0.50;;;7.10;99.90;;;;;;5019036;28;20103;-63
2023/12/30 04:12:16;;;;;;;0.80;0.40;;;7.00;99.90;;;;;;5019552;28;20135;-63
2023/12/30 04:14:41;;;;;;;0.80;0.65;;;7.00;99.90;;;;;;5019563;28;20414;-63
2023/12/30 04:17:07;;;;;;;2.50;0.85;;;7.00;99.90;;;;;;5019432;28;20029;-63
2023/12/30 04:19:32;;;;;;;1.40;0.88;;;7.00;99.90;;;;;;5021287;28;20025;-64
2023/12/30 04:21:58;;;;;;;1.58;0.40;;;7.00;99.90;;;;;;5019433;28;20033;-63
2023/12/30 04:24:23;;;;;;;0.98;0.47;;;7.00;99.90;;;;;;5019577;28;20033;-63
2023/12/30 04:26:50;;;;;;;1.10;0.52;;;7.00;99.90;;;;;;5019471;28;20037;-63
2023/12/30 04:29:15;;;;;;;1.90;0.57;;;7.00;99.90;;;;;;5019397;28;20628;-63
2023/12/30 04:31:41;;;;;;;0.40;0.30;;;7.00;99.90;;;;;;5019177;28;20029;-64
2023/12/30 04:34:06;;;;;;;1.00;0.40;;;7.00;99.90;;;;;;5019258;28;20029;-64
2023/12/30 04:36:32;;;;;;;1.35;0.75;;;7.10;99.90;;;;;;5021030;28;20044;-64
2023/12/30 04:38:57;;;;;;;1.00;0.50;;;7.10;99.90;;;;;;5016730;28;20503;-63
2023/12/30 04:41:23;;;;;;;2.00;0.45;;;7.10;99.90;;;;;;5017786;28;20049;-63
2023/12/30 04:43:48;;;;;;;1.00;0.32;;;7.00;99.90;;;;;;5010888;28;20037;-63
2023/12/30 04:46:14;;;;;;;0.20;0.20;;;7.00;99.90;;;;;;5014867;28;20047;-63
2023/12/30 04:48:40;;;;;;;0.85;0.40;;;7.00;99.90;;;;;;5012050;28;20026;-64
2023/12/30 04:51:05;;;;;;;1.20;0.50;;;7.00;99.90;;;;;;5009097;28;20025;-63
2023/12/30 04:53:31;;;;;;;1.15;0.47;;;6.90;99.90;;;;;;5014732;28;20034;-63
2023/12/30 04:55:56;;;;;;;2.20;1.02;;;7.00;99.90;;;;;;5010790;28;20079;-63
2023/12/30 04:58:22;;;;;;;0.77;0.40;;;6.90;99.90;;;;;;5010141;28;20084;-63
2023/12/30 05:00:48;;;;;;;1.77;0.40;;;6.90;99.90;;;;;;5014629;28;20562;-63
2023/12/30 05:03:16;;;;;;;3.55;0.47;;;6.90;99.90;;;;;;5008077;28;20057;-63
2023/12/30 05:05:42;;;;;;;0.30;0.30;;;6.90;99.90;;;;;;5013240;28;20132;-64
2023/12/30 05:08:07;;;;;;;1.52;0.50;;;6.90;99.90;;;;;;5018901;28;20276;-63
2023/12/30 05:10:33;;;;;;;1.08;0.45;;;6.90;99.90;;;;;;5022828;28;20034;-63
2023/12/30 05:13:02;;;;;;;1.08;0.32;;;6.90;99.90;;;;;;5022716;28;20030;-64
2023/12/30 05:15:27;;;;;;;1.35;0.25;;;6.90;99.90;;;;;;5018849;28;20388;-63
2023/12/30 05:17:53;;;;;;;1.80;0.50;;;6.90;99.90;;;;;;5020915;28;20033;-64
2023/12/30 05:20:19;;;;;;;0.40;0.40;;;6.90;99.90;;;;;;5024545;28;20553;-64
2023/12/30 05:22:45;;;;;;;0.47;0.40;;;6.90;99.90;;;;;;5023746;28;20022;-63
2023/12/30 05:25:10;;;;;;;1.55;0.40;;;6.90;99.90;;;;;;5022700;28;20079;-64
2023/12/30 05:27:37;;;;;;;0.88;0.60;;;7.00;99.90;;;;;;5022398;28;20108;-63
2023/12/30 05:30:05;;;;;;;0.55;0.40;;;7.00;99.90;;;;;;5022526;28;20025;-64
2023/12/30 05:32:30;;;;;;;2.13;0.43;;;7.00;99.90;;;;;;5022368;28;20116;-64
2023/12/30 05:34:55;;;;;;;1.20;0.40;;;7.00;99.90;;;;;;5020709;28;20108;-63
2023/12/30 05:37:21;;;;;;;1.98;0.40;;;7.00;99.90;;;;;;5024302;28;20033;-63
2023/12/30 05:39:46;;;;;;;0.85;0.55;;;7.00;99.90;;;;;;5022409;28;20038;-63
2023/12/30 05:42:12;;;;;;;1.52;0.85;;;7.00;99.90;;;;;;5022367;28;20041;-63
2023/12/30 05:44:38;;;;;;;1.38;0.55;;;7.00;99.90;;;;;;5022405;28;20528;-63
2023/12/30 05:47:04;;;;;;;1.17;0.63;;;7.00;99.90;;;;;;5015027;28;20032;-63
2023/12/30 05:49:29;;;;;;;2.30;0.20;;;6.90;99.90;;;;;;5018065;28;20491;-63
2023/12/30 05:51:55;;;;;;;0.98;0.50;;;6.90;99.90;;;;;;5018027;28;20495;-63
2023/12/30 05:54:20;;;;;;;0.50;0.38;;;6.80;99.90;;;;;;5020035;28;20026;-63
2023/12/30 05:56:46;;;;;;;1.40;0.95;;;6.80;99.90;;;;;;5013888;28;20067;-63
2023/12/30 05:59:11;;;;;;;0.75;0.50;;;6.80;99.90;;;;;;5021846;28;20092;-63
2023/12/30 06:01:46;;;;;;;2.13;0.60;;;6.80;99.90;;;;;;5015594;28;20044;-63
2023/12/30 06:04:15;;;;;;;3.45;0.50;;;6.70;99.90;;;;;;5021967;28;20368;-63
2023/12/30 06:06:42;;;;;;;1.60;0.63;;;6.70;99.90;;;;;;5021772;28;20034;-63
2023/12/30 06:09:08;;;;;;;0.38;0.38;;;6.70;99.90;;;;;;5021769;28;20395;-63
2023/12/30 06:11:33;;;;;;;0.60;0.40;;;6.70;99.90;;;;;;5023655;28;20029;-63
2023/12/30 06:13:58;;;;;;;0.30;0.30;;;6.70;99.90;;;;;;5021239;28;20031;-63
2023/12/30 06:16:24;;;;;;;5.07;0.82;;;6.60;99.90;;;;;;5021526;28;20037;-63
2023/12/30 06:18:49;;;;;;;0.55;0.40;;;6.60;99.90;;;;;;5021839;28;20032;-63
2023/12/30 06:21:15;;;;;;;0.52;0.50;;;6.50;99.90;;;;;;5021499;28;20029;-63
2023/12/30 06:23:40;;;;;;;0.50;0.50;;;6.50;99.90;;;;;;5021558;28;20033;-63
2023/12/30 06:26:06;;;;;;;2.10;0.82;;;6.50;99.90;;;;;;5021469;28;20622;-63
2023/12/30 06:28:31;;;;;;;1.30;0.70;;;6.50;99.90;;;;;;5023234;28;20068;-63
2023/12/30 06:30:57;;;;;;;0.20;0.20;;;6.50;99.90;;;;;;5012892;28;20037;-63
2023/12/30 06:33:23;;;;;;;2.33;0.50;;;6.50;99.90;;;;;;5019697;28;20025;-64
2023/12/30 06:35:49;;;;;;;2.28;0.40;;;6.50;99.90;;;;;;5010969;28;20040;-63
2023/12/30 06:38:15;;;;;;;4.50;0.95;;;6.40;99.90;;;;;;5017080;28;20028;-63
2023/12/30 06:40:45;;;;;;;1.08;0.60;;;6.30;99.90;;;;;;5017233;28;20033;-63
2023/12/30 06:43:11;;;;;;;1.52;0.45;;;6.20;99.90;;;;;;5013001;28;20018;-63
2023/12/30 06:45:37;;;;;;;1.00;0.43;;;6.20;99.90;;;;;;5019089;28;20025;-63
2023/12/30 06:48:03;;;;;;;2.15;0.68;;;6.10;99.90;;;;;;5012811;28;20030;-63
2023/12/30 06:50:28;;;;;;;1.95;0.55;;;6.10;99.90;;;;;;5018324;28;20026;-63
2023/12/30 06:52:55;;;;;;;1.58;0.57;;;6.00;99.90;;;;;;5018897;28;20056;-63
2023/12/30 06:55:21;;;;;;;3.08;0.57;;;6.00;99.90;;;;;;5020746;28;20029;-63
2023/12/30 06:57:46;;;;;;;2.08;0.65;;;6.00;99.90;;;;;;5020676;28;20506;-63
2023/12/30 07:00:12;;;;;;;1.77;0.68;;;5.90;99.90;;;;;;5022772;28;20037;-63
2023/12/30 07:02:38;;;;;;;1.83;0.40;;;5.80;99.90;;;;;;5014449;28;20116;-63
2023/12/30 07:05:04;;;;;;;3.03;0.90;;;5.80;99.90;;;;;;5020719;28;20029;-63
2023/12/30 07:07:30;;;;;;;1.67;0.65;;;5.70;99.90;;;;;;5018333;28;20057;-65
2023/12/30 07:09:55;;;;;;;3.17;0.65;;;5.70;99.90;;;;;;5017969;28;20060;-64
2023/12/30 07:12:20;;;;;;;0.90;0.60;;;5.70;99.90;;;;;;5018420;28;20025;-63
2023/12/30 07:14:46;;;;;;;2.10;0.77;;;5.60;99.90;;;;;;5023740;28;20487;-64
2023/12/30 07:17:11;;;;;;;3.08;1.73;;;5.50;99.90;;;;;;5019400;28;20061;-65
2023/12/30 07:19:37;;;;;;;3.78;1.15;;;5.50;99.90;;;;;;5018613;28;20033;-65
2023/12/30 07:22:03;;;;;;;4.85;1.27;;;5.40;99.90;;;;;;5018227;28;20029;-64
2023/12/30 07:24:28;;;;;;;3.60;0.95;;;5.40;99.90;;;;;;5019058;28;20032;-64
2023/12/30 07:26:53;;;;;;;2.25;0.70;;;5.40;99.90;;;;;;5013997;28;20597;-65
2023/12/30 07:29:19;;;;;;;3.47;0.90;;;5.40;99.90;;;;;;5014776;28;20017;-65
2023/12/30 07:31:44;;;;;;;3.08;0.95;;;5.40;99.90;;;;;;5015805;28;20714;-63
2023/12/30 07:34:10;;;;;;;2.80;0.70;;;5.40;99.90;;;;;;5018913;28;20396;-64
2023/12/30 07:36:36;;;;;;;3.80;0.90;;;5.40;99.90;;;;;;5018741;28;20052;-64
2023/12/30 07:39:01;;;;;;;4.47;0.77;;;5.40;99.90;;;;;;5017925;28;20033;-65
2023/12/30 07:41:27;;;;;;;2.15;0.50;;;5.40;99.90;;;;;;5016827;28;20542;-63
2023/12/30 07:43:52;;;;;;;4.53;0.73;;;5.40;99.90;;;;;;5020459;28;20445;-63
2023/12/30 07:46:17;;;;;;;2.45;0.55;;;5.30;99.90;;;;;;5014133;28;20014;-63
2023/12/30 07:48:44;;;;;;;1.08;0.52;;;5.30;99.90;;;;;;5018405;28;20087;-64
2023/12/30 07:51:10;;;;;;;3.65;0.98;;;5.30;99.90;;;;;;5014873;28;20022;-64
2023/12/30 07:53:35;;;;;;;4.60;0.73;;;5.30;99.90;;;;;;5019608;28;20041;-64
2023/12/30 07:56:02;;;;;;;1.08;0.70;;;5.30;99.90;;;;;;5019673;28;20083;-63
2023/12/30 07:58:39;;;;;;;1.17;0.73;;;5.30;99.90;;;;;;5046993;28;20718;-62
2023/12/30 08:01:05;;;;;;;3.00;0.90;;;5.30;99.90;;;;;;5036180;28;20378;-63
2023/12/30 08:03:31;;;;;;;2.25;0.63;;;5.30;99.90;;;;;;5028907;28;20033;-63
2023/12/30 08:05:56;;;;;;;4.75;0.63;;;5.30;99.90;;;;;;5037969;28;20037;-63
2023/12/30 08:08:22;;;;;;;2.78;0.93;;;5.30;99.90;;;;;;5034319;28;20021;-63
2023/12/30 08:10:47;;;;;;;3.03;0.98;;;5.30;99.90;;;;;;5035507;28;20036;-62
2023/12/30 08:13:13;;;;;;;2.63;0.80;;;5.30;99.90;;;;;;5034446;28;20036;-64
2023/12/30 08:15:38;;;;;;;3.85;0.82;;;5.30;99.90;;;;;;5036509;28;20427;-65
2023/12/30 08:18:04;;;;;;;2.13;0.57;;;5.40;99.90;;;;;;5037089;28;20049;-64
2023/12/30 08:20:30;;;;;;;3.42;1.25;;;5.40;99.90;;;;;;5027579;28;20021;-64
2023/12/30 08:22:56;;;;;;;1.60;0.80;;;5.50;99.90;;;;;;5033894;28;20040;-64
2023/12/30 08:25:21;;;;;;;7.50;1.08;;;5.50;99.90;;;;;;5034369;28;20032;-64
2023/12/30 08:27:47;;;;;;;1.45;0.68;;;5.60;99.90;;;;;;5034424;28;20029;-63
2023/12/30 08:30:13;;;;;;;1.73;0.68;;;5.70;99.90;;;;;;5035848;28;20029;-64
2023/12/30 08:32:38;;;;;;;3.30;0.93;;;5.80;99.90;;;;;;5037665;28;20021;-64
2023/12/30 08:35:07;;;;;;;1.60;0.77;;;5.90;99.90;;;;;;5035721;28;20104;-64
2023/12/30 08:37:33;;;;;;;2.20;1.23;;;6.00;99.90;;;;;;5031499;28;20104;-64
2023/12/30 08:39:59;;;;;;;2.05;0.82;;;6.10;99.90;;;;;;5035759;28;20021;-64
2023/12/30 08:42:24;;;;;;;2.40;1.00;;;6.20;99.90;;;;;;5034154;28;20047;-62
2023/12/30 08:44:50;;;;;;;2.30;1.35;;;6.30;99.90;;;;;;5035658;28;20018;-61
2023/12/30 08:47:15;;;;;;;4.18;1.30;;;6.40;99.90;;;;;;5032149;28;20304;-62
2023/12/30 08:49:42;;;;;;;2.95;0.82;;;6.50;99.90;;;;;;5029762;28;20475;-62
2023/12/30 08:52:07;;;;;;;2.85;0.70;;;6.60;99.90;;;;;;5031088;28;20028;-61
2023/12/30 08:54:33;;;;;;;5.40;1.15;;;6.80;99.90;;;;;;5027291;28;20030;-62
2023/12/30 08:56:59;;;;;;;4.55;0.90;;;6.90;99.90;;;;;;5029332;28;20037;-62
2023/12/30 08:59:25;;;;;;;3.58;1.33;;;7.00;99.90;;;;;;5033518;28;20532;-63
2023/12/30 09:01:51;;;;;;;4.18;1.23;;;7.10;99.90;;;;;;5032226;28;20021;-62
2023/12/30 09:04:17;;;;;;;1.70;0.77;;;7.20;99.90;;;;;;5028826;28;20110;-62
2023/12/30 09:06:43;;;;;;;2.67;1.00;;;7.10;99.90;;;;;;5028182;28;20381;-62
2023/12/30 09:09:08;;;;;;;5.63;1.20;;;7.10;99.90;;;;;;5021246;28;20021;-62
2023/12/30 09:11:37;;;;;;;7.00;1.52;;;7.00;99.90;;;;;;5017658;28;20715;-62
2023/12/30 09:14:06;;;;;;;3.03;1.05;;;6.90;99.90;;;;;;5016114;28;20066;-62
2023/12/30 09:16:32;;;;;;;3.30;0.95;;;6.80;99.90;;;;;;5014689;28;20043;-62
2023/12/30 09:18:58;;;;;;;3.40;1.27;;;6.70;99.90;;;;;;5017180;28;20022;-62
2023/12/30 09:21:24;;;;;;;1.92;0.90;;;6.60;99.90;;;;;;5014222;28;20398;-62
2023/12/30 09:23:50;;;;;;;3.78;1.10;;;6.50;99.90;;;;;;5017455;28;20389;-62
2023/12/30 09:26:16;;;;;;;3.35;1.50;;;6.40;99.90;;;;;;5013097;28;20037;-62
2023/12/30 09:28:42;;;;;;;3.15;1.13;;;6.40;99.90;;;;;;5015251;28;20075;-62
2023/12/30 09:31:07;;;;;;;4.40;1.65;;;6.30;99.90;;;;;;5015904;28;20493;-62
2023/12/30 09:33:33;;;;;;;5.28;1.73;;;6.30;99.90;;;;;;5013461;28;20033;-72
2023/12/30 09:35:58;;;;;;;3.10;1.20;;;6.30;99.90;;;;;;5016839;28;20032;-66
2023/12/30 09:38:25;;;;;;;2.85;0.98;;;6.30;99.90;;;;;;5013624;28;20044;-68
2023/12/30 09:40:51;;;;;;;3.25;1.38;;;6.40;99.90;;;;;;5016320;28;20457;-67
2023/12/30 09:43:24;;;;;;;3.38;1.05;;;6.40;99.90;;;;;;5012876;28;20061;-68
2023/12/30 09:45:51;;;;;;;3.20;1.20;;;6.50;99.90;;;;;;5014642;28;20918;-67
2023/12/30 09:48:20;;;;;;;6.05;1.90;;;6.50;99.90;;;;;;5015915;28;20021;-68
2023/12/30 09:50:49;;;;;;;2.72;1.38;;;6.60;99.90;;;;;;5013746;28;20071;-66
2023/12/30 09:53:16;;;;;;;3.17;0.95;;;6.60;99.90;;;;;;5018786;28;20068;-67
2023/12/30 09:55:44;;;;;;;3.65;1.30;;;6.70;99.90;;;;;;5015419;28;20033;-68
2023/12/30 09:58:10;;;;;;;5.75;1.38;;;6.70;99.90;;;;;;5012687;28;20037;-67
2023/12/30 10:00:39;;;;;;;3.28;1.23;;;6.80;99.90;;;;;;5015976;28;20044;-67
2023/12/30 10:03:05;;;;;;;3.10;1.15;;;6.80;99.90;;;;;;5008512;28;20091;-67
2023/12/30 10:05:31;;;;;;;4.13;1.30;;;6.90;99.90;;;;;;5016953;28;20389;-66
2023/12/30 10:07:57;;;;;;;5.75;1.17;;;6.90;99.90;;;;;;5013181;28;20482;-67
2023/12/30 10:10:45;;;;;;;4.22;1.00;;;7.00;99.90;;;;;;5012568;28;20185;-67
2023/12/30 10:13:12;;;;;;;7.20;1.30;;;7.00;99.90;;;;;;5013562;28;20501;-68
2023/12/30 10:15:39;;;;;;;3.85;1.48;;;7.10;99.90;;;;;;5016001;28;20497;-67
2023/12/30 10:18:07;;;;;;;4.97;1.40;;;7.20;99.90;;;;;;5016894;28;20033;-68
2023/12/30 10:20:35;;;;;;;3.05;1.30;;;7.20;99.90;;;;;;5012689;28;20252;-67
2023/12/30 10:23:00;;;;;;;7.95;1.70;;;7.20;99.90;;;;;;5017201;28;20481;-68
2023/12/30 10:25:26;;;;;;;4.50;1.45;;;7.30;99.90;;;;;;5016658;28;20099;-68
2023/12/30 10:27:51;;;;;;;6.30;1.65;;;7.40;99.90;;;;;;5013069;28;20033;-67
2023/12/30 10:30:19;;;;;;;4.53;1.35;;;7.50;99.90;;;;;;5009028;28;20592;-68
2023/12/30 10:32:46;;;;;;;4.18;1.23;;;7.50;99.50;;;;;;5010738;28;20025;-66
2023/12/30 10:35:12;;;;;;;5.63;1.25;;;7.60;99.90;;;;;;5016298;28;20160;-67
2023/12/30 10:37:38;;;;;;;5.55;1.30;;;7.60;99.80;;;;;;5013857;28;20087;-68
2023/12/30 10:40:05;;;;;;;4.10;1.15;;;7.70;99.40;;;;;;5014982;28;20708;-68
2023/12/30 10:42:31;;;;;;;7.25;1.40;;;7.70;99.30;;;;;;5016317;28;20033;-67
2023/12/30 10:44:56;;;;;;;3.60;1.08;;;7.70;99.00;;;;;;5013688;28;20097;-68
2023/12/30 10:47:26;;;;;;;3.97;1.30;;;7.80;99.00;;;;;;5017820;28;20040;-66
2023/12/30 10:49:54;;;;;;;5.28;1.20;;;7.80;98.80;;;;;;5015882;28;20053;-66
2023/12/30 10:52:24;;;;;;;6.00;2.13;;;7.80;98.20;;;;;;5015252;28;20156;-66
2023/12/30 10:55:04;;;;;;;3.58;1.27;;;7.80;98.50;;;;;;5012400;28;20037;-66
2023/12/30 10:57:34;;;;;;;6.10;1.65;;;7.90;97.80;;;;;;5014393;28;20064;-66
2023/12/30 11:00:06;;;;;;;5.20;2.10;;;7.90;98.30;;;;;;5013843;28;20053;-66
2023/12/30 11:02:33;;;;;;;5.75;1.45;;;7.90;97.80;;;;;;5012725;28;20087;-66
2023/12/30 11:05:01;;;;;;;6.80;1.48;;;7.80;97.40;;;;;;5015139;28;20022;-66
2023/12/30 11:07:27;;;;;;;7.28;1.23;;;7.80;97.20;;;;;;5011687;28;20129;-66
2023/12/30 11:09:53;;;;;;;6.93;1.38;;;7.80;97.30;;;;;;5009515;28;20549;-66
2023/12/30 11:12:19;;;;;;;5.30;1.45;;;7.80;97.70;;;;;;5012235;28;20018;-67
2023/12/30 11:14:44;;;;;;;4.55;1.48;;;7.90;97.60;;;;;;5019583;28;20473;-66
2023/12/30 11:17:30;;;;;;;7.68;1.58;;;7.90;97.50;;;;;;5011504;28;22762;-67
2023/12/30 11:20:15;;;;;;;3.03;1.20;;;7.90;97.60;;;;;;5008082;28;20053;-66
2023/12/30 11:22:41;;;;;;;6.20;1.27;;;7.90;97.70;;;;;;5012503;28;20498;-67
2023/12/30 11:25:08;;;;;;;5.47;1.38;;;7.90;96.50;;;;;;5014233;28;20041;-66
2023/12/30 11:27:33;;;;;;;4.20;2.00;;;7.90;96.70;;;;;;5011132;28;20018;-66
2023/12/30 11:29:59;;;;;;;7.28;1.40;;;7.90;96.50;;;;;;5010388;28;20032;-66
2023/12/30 11:32:25;;;;;;;5.55;2.03;;;7.90;96.40;;;;;;5013033;28;20056;-66
2023/12/30 11:34:50;;;;;;;4.22;1.15;;;7.90;96.60;;;;;;5015757;28;20026;-66
2023/12/30 11:37:18;;;;;;;7.10;1.20;;;7.90;96.30;;;;;;5010766;28;20048;-67
2023/12/30 11:39:45;;;;;;;5.72;1.80;;;7.90;96.30;;;;;;5012779;28;20037;-66
2023/12/30 11:42:11;;;;;;;5.88;1.50;;;7.90;96.40;;;;;;5012853;28;20056;-67
2023/12/30 11:44:37;;;;;;;8.45;2.00;;;7.90;95.40;;;;;;5015006;28;20079;-67
2023/12/30 11:47:03;;;;;;;4.47;1.35;;;7.90;95.70;;;;;;5013697;28;20063;-66
2023/12/30 11:49:28;;;;;;;4.70;1.70;;;7.90;95.50;;;;;;5010865;28;20050;-66
2023/12/30 11:52:04;;;;;;;5.82;1.33;;;7.90;95.00;;;;;;5016828;28;20025;-66
2023/12/30 11:54:32;;;;;;;8.13;1.67;;;8.00;95.00;;;;;;5008215;28;20513;-66
2023/12/30 11:56:57;;;;;;;4.95;1.52;;;7.90;95.00;;;;;;5014586;28;20699;-68
2023/12/30 11:59:23;;;;;;;6.55;1.63;;;7.90;95.10;;;;;;5017120;28;20092;-66
2023/12/30 12:01:48;;;;;;;8.50;1.88;;;7.80;95.10;;;;;;5009828;28;20401;-66
2023/12/30 12:04:14;;;;;;;3.10;1.40;;;7.80;94.80;;;;;;5012293;28;20045;-66
2023/12/30 12:06:40;;;;;;;8.18;1.88;;;7.80;94.50;;;;;;5008724;28;20517;-67
2023/12/30 12:09:07;;;;;;;8.45;1.60;;;7.80;95.00;;;;;;5014228;28;20022;-66
2023/12/30 12:11:33;;;;;;;7.18;1.50;;;7.80;95.20;;;;;;5012003;28;20037;-66
2023/12/30 12:13:58;;;;;;;2.97;1.33;;;7.80;94.90;;;;;;5012842;28;20418;-67
2023/12/30 12:16:25;;;;;;;4.63;1.27;;;7.70;94.90;;;;;;5014691;28;20083;-67
2023/12/30 12:18:51;;;;;;;4.97;1.05;;;7.80;94.50;;;;;;5010613;28;20030;-66
2023/12/30 12:21:16;;;;;;;8.68;1.70;;;7.80;94.50;;;;;;5013439;28;20536;-66
2023/12/30 12:23:42;;;;;;;9.35;1.77;;;7.70;94.40;;;;;;5013985;28;20493;-66
2023/12/30 12:26:08;;;;;;;5.45;1.80;;;7.70;94.10;;;;;;5011704;28;20025;-66
2023/12/30 12:28:34;;;;;;;8.68;1.73;;;7.80;94.20;;;;;;5012902;28;20116;-66
2023/12/30 12:31:05;;;;;;;6.03;2.03;;;7.80;93.90;;;;;;5014468;28;20092;-66
2023/12/30 12:33:31;;;;;;;4.57;1.60;;;7.70;94.10;;;;;;5012581;28;20029;-67
2023/12/30 12:35:56;;;;;;;8.43;1.80;;;7.70;93.80;;;;;;5014316;28;20025;-66
2023/12/30 12:38:22;;;;;;;5.10;1.85;;;7.70;93.90;;;;;;5014718;28;20026;-66
2023/12/30 12:40:47;;;;;;;6.22;1.95;;;7.60;94.10;;;;;;5010717;28;20034;-66
2023/12/30 12:43:13;;;;;;;7.65;1.90;;;7.60;94.20;;;;;;5014862;28;20032;-66
2023/12/30 12:45:38;;;;;;;2.95;1.40;;;7.60;94.00;;;;;;5024108;28;20517;-67
2023/12/30 12:48:05;;;;;;;6.85;1.80;;;7.50;94.00;;;;;;5018464;28;20472;-66
2023/12/30 12:50:31;;;;;;;4.50;1.45;;;7.60;94.40;;;;;;5018460;28;20472;-67
2023/12/30 12:52:57;;;;;;;7.88;1.85;;;7.60;94.20;;;;;;4997917;28;20104;-67